createdAt,value
2018-08-20T00:00:33.570Z,100282.64
2018-08-20T00:05:38.581Z,100282.81
2018-08-20T00:10:42.213Z,100288.69
2018-08-20T00:15:45.653Z,100286.34
2018-08-20T00:20:49.097Z,100286.20
2018-08-20T00:25:54.875Z,100283.70
2018-08-20T00:30:58.467Z,100288.17
2018-08-20T00:36:01.992Z,100290.05
2018-08-20T00:41:05.560Z,100286.59
2018-08-20T00:46:09.078Z,100289.38
2018-08-20T00:51:12.529Z,100294.02
2018-08-20T00:56:16.020Z,100286.06
2018-08-20T01:01:19.516Z,100294.17
2018-08-20T01:06:23.372Z,100294.28
2018-08-20T01:11:27.053Z,100309.83
2018-08-20T01:16:30.577Z,100307.95
2018-08-20T01:21:34.066Z,100315.70
2018-08-20T01:26:37.622Z,100309.63
2018-08-20T01:31:41.517Z,100314.44
2018-08-20T01:36:45.797Z,100313.33
2018-08-20T01:41:49.260Z,100315.95
2018-08-20T01:46:52.761Z,100312.85
2018-08-20T01:51:56.397Z,100313.63
2018-08-20T02:02:02.361Z,100313.91
2018-08-20T02:07:05.972Z,100315.76
2018-08-20T02:12:09.584Z,100314.78
2018-08-20T02:17:12.971Z,100312.45
2018-08-20T02:22:16.432Z,100309.94
2018-08-20T02:27:20.101Z,100304.35
2018-08-20T02:32:23.934Z,100301.84
2018-08-20T02:37:31.821Z,100299.97
2018-08-20T02:42:35.430Z,100290.97
2018-08-20T02:47:39.981Z,100284.43
2018-08-20T02:52:44.541Z,100284.53
2018-08-20T02:57:48.129Z,100289.96
2018-08-20T03:02:51.616Z,100286.55
2018-08-20T03:07:55.172Z,100287.47
2018-08-20T03:12:58.659Z,100286.35
2018-08-20T03:18:02.184Z,100280.43
2018-08-20T03:23:06.027Z,100284.93
2018-08-20T03:28:09.592Z,100291.30
2018-08-20T03:33:13.061Z,100278.97
2018-08-20T03:38:16.786Z,100287.05
2018-08-20T03:43:20.230Z,100291.09
2018-08-20T03:48:23.831Z,100289.45
2018-08-20T03:53:27.324Z,100290.17
2018-08-20T03:58:30.964Z,100288.92
2018-08-20T04:03:34.661Z,100287.87
2018-08-20T04:08:38.136Z,100293.63
2018-08-20T04:13:41.633Z,100296.11
2018-08-20T04:18:45.171Z,100300.67
2018-08-20T04:23:48.624Z,100297.27
2018-08-20T04:28:52.069Z,100298.64
2018-08-20T04:33:55.518Z,100301.55
2018-08-20T04:38:59.184Z,100294.95
2018-08-20T04:44:02.909Z,100301.09
2018-08-20T04:49:06.361Z,100300.75
2018-08-20T04:54:09.841Z,100307.57
2018-08-20T04:59:13.261Z,100307.91
2018-08-20T05:04:16.920Z,100308.63
2018-08-20T05:09:20.369Z,100310.88
2018-08-20T05:14:23.841Z,100313.33
2018-08-20T05:19:27.245Z,100309.41
2018-08-20T05:24:30.720Z,100322.73
2018-08-20T05:29:34.545Z,100329.87
2018-08-20T05:34:38.060Z,100327.52
2018-08-20T05:39:41.549Z,100334.40
2018-08-20T05:44:44.975Z,100337.69
2018-08-20T05:49:48.464Z,100349.36
2018-08-20T05:54:52.041Z,100357.28
2018-08-20T05:59:55.786Z,100361.20
2018-08-20T06:04:59.279Z,100373.92
2018-08-20T06:10:02.862Z,100374.95
2018-08-20T06:15:09.253Z,100378.00
2018-08-20T06:20:16.020Z,100377.06
2018-08-20T06:25:19.487Z,100383.13
2018-08-20T06:30:23.177Z,100382.52
2018-08-20T06:35:26.923Z,100381.30
2018-08-20T06:40:30.397Z,100387.12
2018-08-20T06:45:33.914Z,100391.80
2018-08-20T06:50:37.468Z,100403.58
2018-08-20T06:55:40.949Z,100392.38
2018-08-20T07:00:44.438Z,100412.39
2018-08-20T07:05:47.990Z,100412.67
2018-08-20T07:10:51.504Z,100416.06
2018-08-20T07:15:55.505Z,100415.34
2018-08-20T07:20:59.008Z,100413.09
2018-08-20T07:26:02.488Z,100420.84
2018-08-20T07:31:06.098Z,100419.63
2018-08-20T07:36:09.797Z,100416.80
2018-08-20T07:41:13.262Z,100415.52
2018-08-20T07:46:16.826Z,100413.77
2018-08-20T07:51:20.410Z,100422.65
2018-08-20T07:56:24.005Z,100421.67
2018-08-20T08:01:27.446Z,100423.50
2018-08-20T08:06:30.980Z,100426.71
2018-08-20T08:11:34.604Z,100418.52
2018-08-20T08:16:38.740Z,100432.64
2018-08-20T08:21:42.427Z,100415.97
2018-08-20T08:26:46.045Z,100418.50
2018-08-20T08:31:49.604Z,100422.31
2018-08-20T08:36:53.052Z,100417.33
2018-08-20T08:41:56.820Z,100402.05
2018-08-20T08:47:00.313Z,100403.06
2018-08-20T08:52:04.740Z,100405.50
2018-08-20T08:57:08.350Z,100402.59
2018-08-20T09:02:11.937Z,100398.75
2018-08-20T09:07:15.529Z,100396.97
2018-08-20T09:12:19.222Z,100400.89
2018-08-20T09:17:22.792Z,100399.03
2018-08-20T09:22:26.260Z,100404.69
2018-08-20T09:27:29.820Z,100406.87
2018-08-20T09:32:33.289Z,100395.58
2018-08-20T09:37:36.825Z,100392.36
2018-08-20T09:42:41.117Z,100402.30
2018-08-20T09:47:44.701Z,100403.56
2018-08-20T09:52:48.194Z,100413.07
2018-08-20T09:57:51.699Z,100408.62
2018-08-20T10:02:55.311Z,100415.30
2018-08-20T10:07:58.795Z,100416.87
2018-08-20T10:13:02.294Z,100410.41
2018-08-20T10:18:05.930Z,100419.87
2018-08-20T10:23:09.487Z,100419.87
2018-08-20T10:28:13.101Z,100423.14
2018-08-20T10:33:16.561Z,100427.47
2018-08-20T10:38:20.007Z,100421.21
2018-08-20T10:43:23.438Z,100419.86
2018-08-20T10:48:26.908Z,100425.91
2018-08-20T10:53:30.400Z,100432.42
2018-08-20T10:58:33.929Z,100436.96
2018-08-20T11:03:37.389Z,100447.69
2018-08-20T11:08:40.893Z,100428.14
2018-08-20T11:13:44.414Z,100431.89
2018-08-20T11:18:48.178Z,100430.77
2018-08-20T11:23:51.811Z,100421.95
2018-08-20T11:28:55.297Z,100418.80
2018-08-20T11:33:58.790Z,100403.03
2018-08-20T11:39:02.509Z,100401.20
2018-08-20T11:44:06.241Z,100389.41
2018-08-20T11:49:09.707Z,100397.18
2018-08-20T11:54:13.239Z,100393.33
2018-08-20T11:59:16.921Z,100388.70
2018-08-20T12:04:20.995Z,100395.20
2018-08-20T12:09:24.521Z,100391.98
2018-08-20T12:14:28.008Z,100393.71
2018-08-20T12:19:31.597Z,100388.12
2018-08-20T12:24:35.067Z,100396.67
2018-08-20T12:29:38.694Z,100389.39
2018-08-20T12:34:42.201Z,100386.15
2018-08-20T12:39:45.794Z,100379.95
2018-08-20T12:44:49.285Z,100384.48
2018-08-20T12:49:52.881Z,100385.87
2018-08-20T12:54:56.349Z,100384.82
2018-08-20T13:00:00.014Z,100391.19
2018-08-20T13:05:03.625Z,100391.33
2018-08-20T13:10:07.940Z,100383.90
2018-08-20T13:15:11.487Z,100389.49
2018-08-20T13:20:14.952Z,100383.02
2018-08-20T13:25:18.440Z,100385.67
2018-08-20T13:30:22.001Z,100384.00
2018-08-20T13:35:25.555Z,100386.45
2018-08-20T13:40:29.043Z,100377.66
2018-08-20T13:45:32.790Z,100375.49
2018-08-20T13:50:37.793Z,100374.54
2018-08-20T13:55:41.462Z,100373.31
2018-08-20T14:00:45.075Z,100381.56
2018-08-20T14:05:48.609Z,100371.50
2018-08-20T14:10:52.103Z,100369.48
2018-08-20T14:15:56.099Z,100374.94
2018-08-20T14:21:07.559Z,100374.62
2018-08-20T14:26:11.049Z,100369.03
2018-08-20T14:31:15.194Z,100369.20
2018-08-20T14:36:18.643Z,100368.73
2018-08-20T14:41:22.841Z,100371.36
2018-08-20T14:46:27.141Z,100373.70
2018-08-20T14:51:30.896Z,100374.94
2018-08-20T14:56:34.444Z,100377.90
2018-08-20T15:01:38.270Z,100376.33
2018-08-20T15:06:55.937Z,100383.33
2018-08-20T15:11:59.833Z,100378.34
2018-08-20T15:17:03.781Z,100372.30
2018-08-20T15:22:07.313Z,100379.91
2018-08-20T15:27:10.849Z,100373.70
2018-08-20T15:32:14.606Z,100374.94
2018-08-20T15:37:18.631Z,100374.94
2018-08-20T15:42:22.557Z,100382.70
2018-08-20T15:47:26.101Z,100378.06
2018-08-20T15:52:29.809Z,100377.90
2018-08-20T15:57:33.550Z,100369.68
2018-08-20T16:02:37.501Z,100381.03
2018-08-20T16:07:41.201Z,100377.28
2018-08-20T16:12:44.971Z,100374.06
2018-08-20T16:17:48.488Z,100372.98
2018-08-20T16:22:51.988Z,100374.84
2018-08-20T16:27:55.640Z,100375.64
2018-08-20T16:32:59.663Z,100376.42
2018-08-20T16:38:03.345Z,100365.84
2018-08-20T16:43:07.071Z,100367.25
2018-08-20T16:48:10.935Z,100372.84
2018-08-20T16:53:14.472Z,100367.86
2018-08-20T16:58:17.997Z,100363.47
2018-08-20T17:03:21.482Z,100374.84
2018-08-20T17:08:30.133Z,100372.05
2018-08-20T17:13:33.735Z,100377.20
2018-08-20T17:18:37.659Z,100379.21
2018-08-20T17:23:41.186Z,100381.98
2018-08-20T17:28:44.656Z,100382.26
2018-08-20T17:33:48.408Z,100381.64
2018-08-20T17:38:51.949Z,100391.60
2018-08-20T17:43:55.696Z,100388.30
2018-08-20T17:48:59.214Z,100398.09
2018-08-20T17:54:03.056Z,100398.87
2018-08-20T17:59:10.810Z,100404.88
2018-08-20T18:04:14.382Z,100399.73
2018-08-20T18:09:17.956Z,100410.09
2018-08-20T18:14:24.114Z,100405.91
2018-08-20T18:19:27.643Z,100414.56
2018-08-20T18:24:31.155Z,100416.09
2018-08-20T18:29:35.965Z,100420.02
2018-08-20T18:34:39.676Z,100420.16
2018-08-20T18:39:46.090Z,100419.09
2018-08-20T18:44:50.673Z,100423.56
2018-08-20T18:49:58.988Z,100427.00
2018-08-20T18:55:03.196Z,100427.76
2018-08-20T19:00:12.566Z,100434.13
2018-08-20T19:05:17.570Z,100444.09
2018-08-20T19:10:24.287Z,100443.02
2018-08-20T19:15:37.805Z,100442.38
2018-08-20T19:20:42.897Z,100450.13
2018-08-20T19:25:47.306Z,100449.50
2018-08-20T19:30:52.459Z,100451.38
2018-08-20T19:35:56.821Z,100446.71
2018-08-20T19:41:15.384Z,100451.69
2018-08-20T19:46:30.525Z,100445.20
2018-08-20T19:51:36.059Z,100448.62
2018-08-20T19:56:40.075Z,100452.64
2018-08-20T20:01:44.189Z,100452.98
2018-08-20T20:06:48.411Z,100453.77
2018-08-20T20:11:52.336Z,100458.13
2018-08-20T20:16:56.145Z,100458.73
2018-08-20T20:21:59.815Z,100461.20
2018-08-20T20:27:03.815Z,100457.00
2018-08-20T20:32:07.632Z,100461.98
2018-08-20T20:37:11.557Z,100464.44
2018-08-20T20:42:15.412Z,100476.84
2018-08-20T20:47:19.350Z,100477.97
2018-08-20T20:52:23.305Z,100475.17
2018-08-20T20:57:27.193Z,100475.95
2018-08-20T21:02:31.377Z,100480.48
2018-08-20T21:07:35.441Z,100481.27
2018-08-20T21:12:39.137Z,100482.03
2018-08-20T21:17:43.196Z,100487.00
2018-08-20T21:22:46.762Z,100485.74
2018-08-20T21:27:50.256Z,100490.89
2018-08-20T21:32:53.903Z,100498.05
2018-08-20T21:37:57.605Z,100492.45
2018-08-20T21:43:01.174Z,100508.31
2018-08-20T21:48:04.925Z,100510.77
2018-08-20T21:53:08.692Z,100507.31
2018-08-20T21:58:12.192Z,100509.06
2018-08-20T22:03:16.269Z,100513.52
2018-08-20T22:08:19.843Z,100514.31
2018-08-20T22:13:23.418Z,100515.53
2018-08-20T22:18:31.567Z,100521.47
2018-08-20T22:23:39.236Z,100520.24
2018-08-20T22:28:40.494Z,100524.70
2018-08-20T22:33:52.576Z,100521.91
2018-08-20T22:38:57.410Z,100529.69
2018-08-20T22:44:01.285Z,100533.70
2018-08-20T22:49:05.021Z,100529.86
2018-08-20T22:54:08.792Z,100534.32
2018-08-20T22:59:13.411Z,100533.22
2018-08-20T23:04:17.140Z,100534.94
2018-08-20T23:09:29.062Z,100534.77
2018-08-20T23:14:34.829Z,100535.67
2018-08-20T23:19:38.257Z,100546.11
2018-08-20T23:24:46.107Z,100553.84
2018-08-20T23:29:49.669Z,100554.02
2018-08-20T23:34:55.137Z,100561.00
2018-08-20T23:39:58.653Z,100563.89
2018-08-20T23:45:02.129Z,100564.07
2018-08-20T23:50:06.420Z,100571.05
2018-08-20T23:55:10.124Z,100569.39
